createdAt,value
2022-10-30T00:00:35.211Z,12.11
2022-10-30T00:03:36.956Z,12.30
2022-10-30T00:06:38.697Z,12.37
2022-10-30T00:09:40.781Z,12.31
2022-10-30T00:12:42.790Z,12.34
2022-10-30T00:15:52.476Z,12.33
2022-10-30T00:18:55.444Z,12.35
2022-10-30T00:24:58.581Z,12.30
2022-10-30T00:28:03.542Z,12.35
2022-10-30T00:31:06.141Z,12.34
2022-10-30T00:34:08.026Z,12.36
2022-10-30T00:37:11.294Z,12.34
2022-10-30T00:40:16.349Z,12.26
2022-10-30T00:43:34.134Z,12.23
2022-10-30T00:46:38.640Z,12.14
2022-10-30T00:49:49.008Z,12.09
2022-10-30T00:52:55.400Z,12.15
2022-10-30T00:56:00.257Z,12.10
2022-10-30T00:59:05.927Z,12.13
2022-10-30T01:02:08.548Z,12.11
2022-10-30T01:05:13.331Z,12.08
2022-10-30T01:08:15.268Z,12.13
2022-10-30T01:11:17.298Z,12.06
2022-10-30T01:14:20.570Z,12.02
2022-10-30T01:18:00.154Z,11.96
2022-10-30T01:21:17.327Z,11.95
2022-10-30T01:24:37.661Z,11.93
2022-10-30T01:27:54.744Z,11.99
2022-10-30T01:31:17.999Z,11.97
2022-10-30T01:34:57.758Z,11.97
2022-10-30T01:38:24.993Z,11.97
2022-10-30T01:41:28.847Z,11.97
2022-10-30T01:44:33.328Z,12.02
2022-10-30T01:47:55.168Z,11.94
2022-10-30T01:51:20.134Z,11.89
2022-10-30T01:54:31.165Z,11.92
2022-10-30T01:57:45.025Z,11.93
2022-10-30T02:00:54.262Z,11.89
2022-10-30T02:03:56.189Z,11.94
2022-10-30T02:06:58.331Z,11.92
2022-10-30T02:10:00.644Z,11.90
2022-10-30T02:13:03.655Z,11.94
2022-10-30T02:16:06.068Z,11.89
2022-10-30T02:19:08.195Z,11.88
2022-10-30T02:22:10.039Z,11.87
2022-10-30T02:25:11.908Z,11.88
2022-10-30T02:28:13.922Z,11.85
2022-10-30T02:31:15.562Z,11.82
2022-10-30T02:34:17.724Z,11.82
2022-10-30T02:37:19.608Z,11.84
2022-10-30T02:40:21.494Z,11.81
2022-10-30T02:43:23.208Z,11.74
2022-10-30T02:46:25.277Z,11.81
2022-10-30T02:49:27.110Z,11.87
2022-10-30T02:52:29.247Z,11.87
2022-10-30T02:55:31.682Z,11.83
2022-10-30T02:58:33.603Z,11.80
2022-10-30T03:01:35.643Z,11.71
2022-10-30T03:04:37.661Z,11.84
2022-10-30T03:07:40.055Z,11.84
2022-10-30T03:10:41.817Z,11.82
2022-10-30T03:13:44.849Z,11.80
2022-10-30T03:16:46.602Z,11.71
2022-10-30T03:19:51.615Z,11.67
2022-10-30T03:22:53.986Z,11.69
2022-10-30T03:25:57.125Z,11.81
2022-10-30T03:28:59.631Z,11.85
2022-10-30T03:32:01.457Z,11.88
2022-10-30T03:35:08.550Z,11.66
2022-10-30T03:38:11.025Z,11.41
2022-10-30T03:41:12.857Z,11.38
2022-10-30T03:44:14.806Z,11.31
2022-10-30T03:47:16.572Z,11.28
2022-10-30T03:50:20.482Z,11.36
2022-10-30T03:53:24.130Z,11.56
2022-10-30T03:56:26.594Z,11.57
2022-10-30T03:59:33.076Z,11.58
2022-10-30T04:02:58.043Z,11.55
2022-10-30T04:06:01.484Z,11.62
2022-10-30T04:09:03.808Z,11.58
2022-10-30T04:12:11.524Z,11.48
2022-10-30T04:15:13.495Z,11.57
2022-10-30T04:18:16.466Z,11.72
2022-10-30T04:21:18.299Z,11.70
2022-10-30T04:24:20.193Z,11.74
2022-10-30T04:27:25.900Z,11.68
2022-10-30T04:30:28.020Z,11.49
2022-10-30T04:33:29.966Z,11.32
2022-10-30T04:36:34.293Z,11.22
2022-10-30T04:39:36.256Z,11.19
2022-10-30T04:42:48.512Z,11.23
2022-10-30T04:45:50.276Z,11.07
2022-10-30T04:48:52.600Z,11.07
2022-10-30T04:51:55.084Z,11.02
2022-10-30T04:54:57.430Z,10.86
2022-10-30T04:58:01.017Z,11.02
2022-10-30T05:01:06.017Z,11.18
2022-10-30T05:04:09.165Z,11.34
2022-10-30T05:07:12.512Z,11.45
2022-10-30T05:10:14.918Z,11.34
2022-10-30T05:13:16.798Z,11.31
2022-10-30T05:16:18.768Z,11.09
2022-10-30T05:19:20.860Z,11.23
2022-10-30T05:22:32.936Z,11.39
2022-10-30T05:25:35.055Z,11.38
2022-10-30T05:28:38.801Z,11.35
2022-10-30T05:31:41.141Z,11.29
2022-10-30T05:34:51.847Z,11.05
2022-10-30T05:37:57.681Z,10.93
2022-10-30T05:40:59.579Z,10.94
2022-10-30T05:44:01.769Z,10.99
2022-10-30T05:47:03.839Z,11.04
2022-10-30T05:50:09.739Z,10.92
2022-10-30T05:53:11.679Z,10.85
2022-10-30T05:56:14.762Z,11.00
2022-10-30T05:59:16.810Z,11.07
2022-10-30T06:02:19.779Z,10.99
2022-10-30T06:05:22.305Z,11.11
2022-10-30T06:08:31.424Z,11.14
2022-10-30T06:11:37.591Z,11.17
2022-10-30T06:14:39.705Z,11.24
2022-10-30T06:17:41.612Z,11.32
2022-10-30T06:20:56.654Z,11.37
2022-10-30T06:24:01.629Z,11.42
2022-10-30T06:27:26.705Z,11.27
2022-10-30T06:30:29.762Z,11.27
2022-10-30T06:33:31.892Z,11.02
2022-10-30T06:36:35.174Z,11.15
2022-10-30T06:39:37.305Z,10.89
2022-10-30T06:42:58.599Z,10.69
2022-10-30T06:49:17.226Z,10.78
2022-10-30T06:52:23.186Z,10.63
2022-10-30T06:55:27.896Z,10.77
2022-10-30T06:58:48.605Z,10.69
2022-10-30T07:02:11.242Z,10.80
2022-10-30T07:05:39.977Z,10.83
2022-10-30T07:08:42.589Z,10.93
2022-10-30T07:11:47.002Z,10.86
2022-10-30T07:14:54.519Z,11.00
2022-10-30T07:18:32.390Z,10.96
2022-10-30T07:21:36.322Z,10.93
2022-10-30T07:24:41.196Z,10.92
2022-10-30T07:28:04.923Z,10.92
2022-10-30T07:31:20.200Z,11.04
2022-10-30T07:34:52.181Z,10.97
2022-10-30T07:38:00.701Z,11.22
2022-10-30T07:41:13.447Z,11.39
2022-10-30T07:44:24.585Z,11.62
2022-10-30T07:47:45.338Z,11.63
2022-10-30T07:50:53.242Z,11.64
2022-10-30T07:53:55.528Z,11.82
2022-10-30T07:56:59.622Z,12.11
2022-10-30T08:00:21.048Z,12.16
2022-10-30T08:03:32.587Z,11.93
2022-10-30T08:06:46.804Z,11.73
2022-10-30T08:09:49.815Z,11.26
2022-10-30T08:12:53.572Z,11.58
2022-10-30T08:15:55.892Z,11.27
2022-10-30T08:18:58.023Z,11.11
2022-10-30T08:22:02.463Z,11.01
2022-10-30T08:25:08.791Z,11.03
2022-10-30T08:28:12.056Z,11.30
2022-10-30T08:31:15.665Z,11.29
2022-10-30T08:34:36.735Z,11.71
2022-10-30T08:37:42.251Z,11.98
2022-10-30T08:40:44.736Z,12.05
2022-10-30T08:43:46.926Z,12.07
2022-10-30T08:46:48.856Z,12.27
2022-10-30T08:49:51.666Z,12.35
2022-10-30T08:53:02.351Z,12.53
2022-10-30T08:56:05.538Z,12.54
2022-10-30T08:59:21.367Z,12.57
2022-10-30T09:02:26.307Z,12.51
2022-10-30T09:05:47.354Z,12.34
2022-10-30T09:08:52.613Z,12.54
2022-10-30T09:12:04.635Z,12.15
2022-10-30T09:15:13.590Z,12.24
2022-10-30T09:18:27.495Z,12.30
2022-10-30T09:21:29.972Z,12.38
2022-10-30T09:24:32.212Z,12.52
2022-10-30T09:27:40.578Z,12.67
2022-10-30T09:30:45.328Z,12.85
2022-10-30T09:33:51.543Z,12.53
2022-10-30T09:37:15.887Z,12.93
2022-10-30T09:40:29.920Z,13.05
2022-10-30T09:43:32.027Z,13.23
2022-10-30T09:46:58.988Z,13.15
2022-10-30T09:50:16.928Z,13.09
2022-10-30T09:53:30.666Z,13.35
2022-10-30T09:57:13.393Z,13.45
2022-10-30T10:00:19.602Z,13.26
2022-10-30T10:03:37.952Z,13.35
2022-10-30T10:07:04.940Z,13.85
2022-10-30T10:10:46.196Z,14.03
2022-10-30T10:14:18.005Z,13.80
2022-10-30T10:17:37.401Z,13.90
2022-10-30T10:20:42.410Z,13.88
2022-10-30T10:23:52.229Z,13.77
2022-10-30T10:27:13.573Z,13.26
2022-10-30T10:30:22.051Z,12.95
2022-10-30T10:33:57.824Z,12.65
2022-10-30T10:37:28.013Z,12.54
2022-10-30T10:40:58.108Z,12.23
2022-10-30T10:44:05.504Z,12.12
2022-10-30T10:47:45.010Z,12.36
2022-10-30T10:50:53.548Z,12.38
2022-10-30T10:53:59.115Z,12.60
2022-10-30T10:57:04.726Z,12.49
2022-10-30T11:00:20.019Z,12.66
2022-10-30T11:03:26.225Z,12.45
2022-10-30T11:06:30.540Z,12.27
2022-10-30T11:09:32.509Z,12.12
2022-10-30T11:12:37.768Z,12.22
2022-10-30T11:16:00.650Z,12.22
2022-10-30T11:19:05.136Z,12.46
2022-10-30T11:22:22.579Z,12.73
2022-10-30T11:25:34.578Z,12.84
2022-10-30T11:28:43.108Z,13.19
2022-10-30T11:31:45.345Z,13.36
2022-10-30T11:34:47.777Z,13.54
2022-10-30T11:38:13.553Z,13.41
2022-10-30T11:41:16.901Z,13.43
2022-10-30T11:44:19.323Z,13.44
2022-10-30T11:47:28.421Z,13.45
2022-10-30T11:50:31.674Z,13.41
2022-10-30T11:53:40.264Z,13.42
2022-10-30T11:56:47.091Z,13.35
2022-10-30T11:59:52.062Z,13.80
2022-10-30T12:02:56.940Z,13.65
2022-10-30T12:06:19.494Z,13.94
2022-10-30T12:09:23.301Z,14.02
2022-10-30T12:12:39.199Z,14.06
2022-10-30T12:15:41.480Z,14.35
2022-10-30T12:18:54.659Z,14.45
2022-10-30T12:21:58.488Z,14.77
2022-10-30T12:25:03.871Z,14.84
2022-10-30T12:28:14.694Z,15.08
2022-10-30T12:31:20.673Z,14.95
2022-10-30T12:34:47.332Z,14.88
2022-10-30T12:37:53.893Z,14.88
2022-10-30T12:41:14.250Z,14.66
2022-10-30T12:44:21.173Z,14.36
2022-10-30T12:47:23.144Z,14.62
2022-10-30T12:50:25.337Z,14.79
2022-10-30T12:53:40.488Z,15.04
2022-10-30T12:56:45.889Z,15.21
2022-10-30T13:00:06.940Z,15.14
2022-10-30T13:03:27.175Z,14.58
2022-10-30T13:06:33.040Z,14.23
2022-10-30T13:10:05.568Z,14.32
2022-10-30T13:13:19.713Z,14.35
2022-10-30T13:16:28.637Z,14.25
2022-10-30T13:19:30.802Z,14.44
2022-10-30T13:22:47.797Z,14.35
2022-10-30T13:26:16.960Z,14.03
2022-10-30T13:29:46.945Z,14.17
2022-10-30T13:33:05.802Z,13.89
2022-10-30T13:36:33.485Z,14.02
2022-10-30T13:39:59.409Z,14.04
2022-10-30T13:43:04.654Z,13.85
2022-10-30T13:46:44.670Z,13.85
2022-10-30T13:50:05.792Z,13.82
2022-10-30T13:53:17.109Z,13.78
2022-10-30T13:56:19.550Z,13.95
2022-10-30T13:59:30.784Z,14.12
2022-10-30T14:03:08.360Z,14.38
2022-10-30T14:06:25.800Z,14.56
2022-10-30T14:10:05.949Z,14.36
2022-10-30T14:13:16.176Z,14.09
2022-10-30T14:16:44.439Z,14.07
2022-10-30T14:20:10.423Z,14.11
2022-10-30T14:24:00.793Z,14.25
2022-10-30T14:27:06.247Z,14.29
2022-10-30T14:30:18.636Z,14.49
2022-10-30T14:33:39.511Z,14.00
2022-10-30T14:36:44.840Z,13.80
2022-10-30T14:39:47.550Z,13.67
2022-10-30T14:42:55.129Z,13.61
2022-10-30T14:46:01.973Z,13.65
2022-10-30T14:49:27.991Z,13.40
2022-10-30T14:52:33.258Z,13.42
2022-10-30T14:55:56.459Z,13.30
2022-10-30T14:59:14.382Z,13.11
2022-10-30T15:02:27.645Z,13.07
2022-10-30T15:05:53.228Z,13.25
2022-10-30T15:09:29.332Z,13.31
2022-10-30T15:12:59.740Z,13.43
2022-10-30T15:16:08.632Z,13.50
2022-10-30T15:19:13.235Z,13.59
2022-10-30T15:22:21.227Z,13.68
2022-10-30T15:25:25.211Z,13.69
2022-10-30T15:28:30.603Z,13.51
2022-10-30T15:31:33.729Z,13.27
2022-10-30T15:34:35.984Z,13.03
2022-10-30T15:37:38.000Z,13.20
2022-10-30T15:40:40.326Z,13.32
2022-10-30T15:43:43.510Z,13.17
2022-10-30T15:46:47.531Z,13.28
2022-10-30T15:49:52.629Z,13.43
2022-10-30T15:52:54.922Z,13.33
2022-10-30T15:55:58.674Z,13.27
2022-10-30T15:59:03.232Z,13.23
2022-10-30T16:02:22.961Z,13.15
2022-10-30T16:05:25.896Z,13.09
2022-10-30T16:08:28.139Z,13.18
2022-10-30T16:11:30.768Z,12.99
2022-10-30T16:14:37.059Z,12.85
2022-10-30T16:17:39.475Z,12.69
2022-10-30T16:20:44.152Z,12.77
2022-10-30T16:23:55.015Z,12.88
2022-10-30T16:27:14.691Z,13.00
2022-10-30T16:30:17.532Z,13.12
2022-10-30T16:33:24.816Z,12.88
2022-10-30T16:36:27.394Z,12.74
2022-10-30T16:39:30.352Z,12.76
2022-10-30T16:42:35.170Z,12.81
2022-10-30T16:45:48.514Z,12.78
2022-10-30T16:48:59.947Z,12.63
2022-10-30T16:52:14.179Z,12.47
2022-10-30T16:55:22.868Z,12.57
2022-10-30T16:58:29.549Z,12.67
2022-10-30T17:01:32.741Z,12.66
2022-10-30T17:04:35.583Z,12.53
2022-10-30T17:07:39.366Z,12.70
2022-10-30T17:10:46.838Z,12.71
2022-10-30T17:13:55.226Z,12.75
2022-10-30T17:17:00.631Z,12.72
2022-10-30T17:20:08.267Z,12.50
2022-10-30T17:23:18.110Z,12.38
2022-10-30T17:26:20.511Z,12.57
2022-10-30T17:29:39.082Z,12.14
2022-10-30T17:32:45.903Z,12.22
2022-10-30T17:35:48.211Z,12.19
2022-10-30T17:38:51.002Z,12.16
2022-10-30T17:41:56.917Z,12.24
2022-10-30T17:44:59.741Z,12.29
2022-10-30T17:48:02.905Z,12.28
2022-10-30T17:51:05.694Z,12.25
2022-10-30T17:54:12.482Z,12.18
2022-10-30T17:57:15.641Z,12.17
2022-10-30T18:00:18.434Z,12.16
2022-10-30T18:03:21.755Z,12.26
2022-10-30T18:06:26.353Z,12.24
2022-10-30T18:09:28.831Z,12.15
2022-10-30T18:12:30.972Z,12.24
2022-10-30T18:15:42.242Z,12.08
2022-10-30T18:18:45.673Z,11.98
2022-10-30T18:21:48.943Z,11.99
2022-10-30T18:24:52.101Z,11.97
2022-10-30T18:27:54.957Z,12.06
2022-10-30T18:30:59.158Z,12.11
2022-10-30T18:34:01.389Z,12.17
2022-10-30T18:37:03.809Z,12.23
2022-10-30T18:40:07.014Z,12.31
2022-10-30T18:43:12.752Z,12.20
2022-10-30T18:46:16.315Z,12.27
2022-10-30T18:49:20.652Z,12.37
2022-10-30T18:52:23.176Z,12.55
2022-10-30T18:55:37.207Z,12.29
2022-10-30T18:58:39.383Z,12.30
2022-10-30T19:01:46.804Z,12.31
2022-10-30T19:04:49.383Z,12.46
2022-10-30T19:07:52.121Z,12.47
2022-10-30T19:10:57.275Z,12.40
2022-10-30T19:14:00.093Z,12.36
2022-10-30T19:17:03.328Z,12.40
2022-10-30T19:20:06.182Z,12.55
2022-10-30T19:23:16.550Z,12.49
2022-10-30T19:26:19.025Z,12.56
2022-10-30T19:29:21.350Z,12.47
2022-10-30T19:32:23.778Z,12.40
2022-10-30T19:35:27.710Z,12.45
2022-10-30T19:38:31.573Z,12.39
2022-10-30T19:41:33.999Z,12.31
2022-10-30T19:44:37.386Z,12.32
2022-10-30T19:47:40.150Z,12.31
2022-10-30T19:50:44.330Z,12.32
2022-10-30T19:53:46.731Z,12.37
2022-10-30T19:56:49.236Z,12.44
2022-10-30T19:59:51.789Z,12.53
2022-10-30T20:02:55.958Z,12.56
2022-10-30T20:05:58.211Z,12.55
2022-10-30T20:09:02.788Z,12.40
2022-10-30T20:12:06.400Z,12.54
2022-10-30T20:15:23.195Z,12.61
2022-10-30T20:18:30.337Z,12.51
2022-10-30T20:21:32.838Z,12.47
2022-10-30T20:24:35.036Z,12.35
2022-10-30T20:27:38.354Z,12.35
2022-10-30T20:30:40.338Z,12.24
2022-10-30T20:33:42.642Z,12.23
2022-10-30T20:36:44.598Z,12.20
2022-10-30T20:39:50.235Z,12.19
2022-10-30T20:42:54.909Z,12.20
2022-10-30T20:46:00.121Z,12.24
2022-10-30T20:49:16.758Z,12.01
2022-10-30T20:52:20.180Z,11.92
2022-10-30T20:55:22.250Z,11.97
2022-10-30T20:58:24.953Z,12.08
2022-10-30T21:01:27.302Z,11.98
2022-10-30T21:04:29.608Z,11.94
2022-10-30T21:07:32.010Z,12.13
2022-10-30T21:10:36.105Z,12.22
2022-10-30T21:13:42.959Z,12.11
2022-10-30T21:16:45.187Z,12.02
2022-10-30T21:19:47.134Z,11.99
2022-10-30T21:22:49.595Z,12.08
2022-10-30T21:26:01.254Z,12.05
2022-10-30T21:29:04.515Z,12.04
2022-10-30T21:32:06.878Z,12.08
2022-10-30T21:35:09.869Z,12.02
2022-10-30T21:38:12.155Z,12.00
2022-10-30T21:41:16.581Z,11.98
2022-10-30T21:44:18.884Z,11.73
2022-10-30T21:47:20.876Z,11.88
2022-10-30T21:50:23.055Z,11.87
2022-10-30T21:53:32.292Z,11.79
2022-10-30T21:56:36.067Z,11.78
2022-10-30T21:59:38.379Z,11.76
2022-10-30T22:02:41.775Z,11.81
2022-10-30T22:05:43.607Z,11.79
2022-10-30T22:08:46.899Z,11.83
2022-10-30T22:11:48.783Z,11.82
2022-10-30T22:14:50.763Z,11.88
2022-10-30T22:17:52.881Z,11.90
2022-10-30T22:21:03.079Z,11.91
2022-10-30T22:24:05.589Z,11.90
2022-10-30T22:27:07.988Z,11.89
2022-10-30T22:30:10.652Z,11.92
2022-10-30T22:33:12.784Z,11.95
2022-10-30T22:36:22.452Z,11.97
2022-10-30T22:39:24.665Z,11.97
2022-10-30T22:42:26.735Z,11.95
2022-10-30T22:45:28.616Z,11.93
2022-10-30T22:48:30.607Z,11.72
2022-10-30T22:51:34.653Z,11.67
2022-10-30T22:54:36.869Z,11.66
2022-10-30T22:57:38.682Z,11.55
2022-10-30T23:00:40.557Z,11.64
2022-10-30T23:03:42.888Z,11.35
2022-10-30T23:06:45.037Z,11.26
2022-10-30T23:09:46.930Z,11.22
2022-10-30T23:12:48.826Z,11.29
2022-10-30T23:15:50.736Z,11.36
2022-10-30T23:18:55.924Z,11.36
2022-10-30T23:21:58.859Z,11.38
2022-10-30T23:25:00.825Z,11.39
2022-10-30T23:28:04.017Z,11.40
2022-10-30T23:31:20.792Z,11.17
2022-10-30T23:34:22.543Z,11.24
2022-10-30T23:37:24.339Z,11.21
2022-10-30T23:40:26.276Z,11.24
2022-10-30T23:43:28.228Z,11.21
2022-10-30T23:46:30.334Z,11.29
2022-10-30T23:49:34.131Z,11.23
2022-10-30T23:52:36.412Z,11.26
2022-10-30T23:55:38.099Z,11.22
2022-10-30T23:58:43.366Z,11.23
